• Join FlightAware (Why Join?)
  • Login
  • US Flag 
04:01PM EDT


 

Airport Tracker/Info


-or-


 

Live Flight TrackerFlight Track Log ✈ N1944E ✈ 18-Jun-2013 ✈ KCOD - KRKS

Flight Track Log - Related Links

Times and Time Zones

All times are in EDT time to prevent confusion due to time zone crossing. See the N1944E flight status page for this flight to view local times or setup timezone preferences in your user account.

Time Position Orientation Groundspeed Altitude Reporting Facility
EDT Latitude Longitude Course Direction KTS MPH feet Rate Location/Type
06:16PM 44.2236 -109.0167 180° South  Level FlightAware Approximate
06:17PM 44.1747 -109.0167 180° South  Level FlightAware Approximate
06:18PM 44.1259 -109.0167 180° South  Level FlightAware Approximate
06:19PM 44.0770 -109.0167 180° South  Level FlightAware Approximate
06:20PM 44.0282 -109.0167 180° South  Level FlightAware Approximate
06:21PM 43.9794 -109.0167 180° South  Level FlightAware Approximate
06:22PM 43.9305 -109.0167 180° South  Level FlightAware Approximate
06:22PM 43.9658 -108.8811 178° South 219 252 16,800  Level Salt Lake Center
06:23PM 43.8819 -109.0212 190° South  Level FlightAware Approximate
06:23PM 43.9167 -108.8797 179° South 162 186 16,900  Level Salt Lake Center
06:24PM 43.8339 -109.0332 190° South  Level FlightAware Approximate
06:24PM 43.8683 -108.8844 184° South 170 196 17,000  Level Salt Lake Center
06:25PM 43.7850 -109.0340 181° South  Level FlightAware Approximate
06:25PM 43.8139 -108.8936 187° South 174 200 17,000  Level Salt Lake Center
06:26PM 43.7362 -109.0346 181° South  Level FlightAware Approximate
06:26PM 43.7664 -108.9022 187° South 176 203 17,000  Level Salt Lake Center
06:27PM 43.6873 -109.0352 181° South  Level FlightAware Approximate
06:27PM 43.7103 -108.9122 187° South 178 205 17,000  Level Salt Lake Center
06:28PM 43.6386 -109.0330 178° South  Level FlightAware Approximate
06:28PM 43.6611 -108.9181 185° South 181 208 17,000  Level Salt Lake Center
06:29PM 43.6097 -108.9219 183° South 184 212 17,000  Level Salt Lake Center
06:31PM 43.5514 -108.9239 181° South 188 216 17,000  Level Salt Lake Center
06:32PM 43.5017 -108.9275 183° South 187 215 17,000  Level Salt Lake Center
06:33PM 43.4442 -108.9311 183° South 186 214 17,000  Level Salt Lake Center
06:34PM 43.3942 -108.9372 185° South 186 214 17,000  Level Salt Lake Center
06:35PM 43.3464 -108.9400 182° South 185 213 17,000  Level Salt Lake Center
06:36PM 43.2861 -108.9453 184° South 183 211 17,000  Level Salt Lake Center
06:37PM 43.2383 -108.9486 183° South 181 208 17,000  Level Salt Lake Center
06:38PM 43.1919 -108.9506 182° South 176 203 17,000  Level Salt Lake Center
06:39PM 43.1397 -108.9561 184° South 172 198 17,000  Level Salt Lake Center
06:40PM 43.0942 -108.9614 185° South 172 198 17,000  Level Salt Lake Center
06:41PM 43.0372 -108.9667 184° South 178 205 17,000  Level Salt Lake Center
06:42PM 42.9897 -108.9711 184° South 180 207 17,000  Level Salt Lake Center
06:43PM 42.9331 -108.9747 183° South 181 208 17,000  Level Salt Lake Center
06:44PM 42.8833 -108.9783 183° South 185 213 17,000  Level Salt Lake Center
06:45PM 42.8350 -108.9797 181° South 183 211 17,000  Level Salt Lake Center
06:46PM 42.7772 -108.9817 181° South 185 213 17,100  Climbing Salt Lake Center
06:47PM 42.7267 -108.9864 184° South 187 215 17,000 -60 Descending Salt Lake Center
06:48PM 42.6683 -108.9944 186° South 188 216 17,000  Level Salt Lake Center
06:49PM 42.6161 -108.9986 183° South 192 221 17,000  Level Salt Lake Center
06:50PM 42.5592 -109.0003 181° South 188 216 17,100  Climbing Salt Lake Center
06:51PM 42.5119 -109.0025 182° South 181 208 17,100 -60 Level Salt Lake Center
06:52PM 42.4656 -109.0086 186° South 177 204 17,000 -60 Descending Salt Lake Center
06:53PM 42.4106 -109.0150 185° South 177 204 17,000  Level Salt Lake Center
06:54PM 42.3581 -109.0156 180° South 192 221 17,100 -60 Climbing Salt Lake Center
06:55PM 42.2994 -109.0192 183° South 190 219 16,900 -480 Descending Salt Lake Center
06:56PM 42.2464 -109.0233 183° South 196 226 16,200 -660 Descending Salt Lake Center
06:57PM 42.1819 -109.0300 184° South 205 236 15,600 -780 Descending Salt Lake Center
06:58PM 42.1272 -109.0344 183° South 206 237 14,700 -840 Descending Salt Lake Center
06:59PM 42.0728 -109.0383 183° South 206 237 14,000 -720 Descending Salt Lake Center
07:00PM 42.0092 -109.0400 181° South 205 236 13,300 -720 Descending Salt Lake Center
07:01PM 41.9547 -109.0389 179° South 204 235 12,600 -780 Descending Salt Lake Center
07:02PM 41.8919 -109.0461 185° South 203 234 11,800 -840 Descending Salt Lake Center